Time;durP1;ratioP1;P1;durP2;ratioP2;P2;SDS_P1;SDS_P2;PMS_P1;PMS_P2;Temp;Humidity;BMP_temperature;BMP_pressure;BME280_temperature;BME280_humidity;BME280_pressure;Samples;Min_cycle;Max_cycle;Signal;HPM_P1;HPM_P2
2023/01/11 00:02:12;;;;;;;7.82;3.70;;;;;;;9.52;100.00;100684.34;5343676;27;20020;-81
2023/01/11 00:04:43;;;;;;;6.45;4.15;;;;;;;9.59;100.00;100682.81;5339917;27;20035;-80
2023/01/11 00:07:14;;;;;;;7.38;3.80;;;;;;;9.66;100.00;100680.44;5339058;27;20016;-82
2023/01/11 00:09:46;;;;;;;6.03;3.20;;;;;;;9.71;100.00;100680.00;5340715;27;20039;-80
2023/01/11 00:12:18;;;;;;;6.35;3.30;;;;;;;9.71;100.00;100690.66;5341550;27;20392;-81
2023/01/11 00:14:49;;;;;;;6.13;2.97;;;;;;;9.75;100.00;100668.94;5340061;27;20032;-83
2023/01/11 00:17:20;;;;;;;4.55;2.85;;;;;;;9.79;100.00;100665.00;5337621;27;20158;-81
2023/01/11 00:19:52;;;;;;;4.30;2.75;;;;;;;9.81;100.00;100663.03;5340954;27;20143;-80
2023/01/11 00:22:23;;;;;;;3.90;2.67;;;;;;;9.87;100.00;100666.09;5341021;27;20036;-80
2023/01/11 00:24:54;;;;;;;5.10;2.30;;;;;;;9.88;100.00;100670.47;5341783;27;20015;-79
2023/01/11 00:27:26;;;;;;;4.30;2.35;;;;;;;9.92;100.00;100671.84;5334294;27;20050;-80
2023/01/11 00:29:57;;;;;;;4.55;2.42;;;;;;;9.93;100.00;100660.22;5344973;27;20031;-79
2023/01/11 00:32:28;;;;;;;3.78;2.00;;;;;;;9.98;100.00;100657.97;5340807;27;20475;-81
2023/01/11 00:35:00;;;;;;;3.92;1.85;;;;;;;9.98;100.00;100650.81;5341343;27;20050;-81
2023/01/11 00:37:31;;;;;;;3.85;2.05;;;;;;;10.05;100.00;100647.59;5333309;27;20026;-80
2023/01/11 00:40:03;;;;;;;6.80;2.05;;;;;;;10.02;100.00;100652.19;5341311;27;20048;-81
2023/01/11 00:48:14;;;;;;;3.40;2.45;;;;;;;9.92;100.00;100648.72;5338660;27;20058;-81
2023/01/11 00:50:45;;;;;;;6.57;2.47;;;;;;;9.88;100.00;100644.66;5338453;27;20043;-81
2023/01/11 00:53:18;;;;;;;4.18;2.47;;;;;;;9.91;100.00;100644.38;5320445;27;20468;-80
2023/01/11 00:55:49;;;;;;;4.30;2.67;;;;;;;9.93;100.00;100642.41;5341457;27;20023;-80
2023/01/11 00:58:20;;;;;;;4.57;2.60;;;;;;;9.92;100.00;100646.06;5343641;27;20024;-80
2023/01/11 01:00:52;;;;;;;5.38;2.95;;;;;;;9.88;100.00;100657.13;5340167;27;20023;-82
2023/01/11 01:03:23;;;;;;;5.07;2.97;;;;;;;9.94;100.00;100633.44;5343285;27;20038;-81
2023/01/11 01:05:54;;;;;;;5.32;3.17;;;;;;;9.94;100.00;100633.44;5349676;27;20026;-80
2023/01/11 01:08:26;;;;;;;5.45;3.10;;;;;;;9.94;100.00;100636.09;5352304;27;20561;-81
2023/01/11 01:10:57;;;;;;;5.80;4.00;;;;;;;9.94;100.00;100636.09;5351623;27;20024;-79
2023/01/11 01:16:18;;;;;;;5.47;3.65;;;;;;;9.95;100.00;100637.75;5333484;27;20023;-80
2023/01/11 01:18:52;;;;;;;5.18;3.72;;;;;;;9.98;100.00;100639.31;5342463;27;20035;-81
2023/01/11 01:21:24;;;;;;;6.00;4.20;;;;;;;9.98;100.00;100645.47;5342267;27;20043;-82
2023/01/11 01:23:56;;;;;;;7.78;4.75;;;;;;;10.00;100.00;100651.50;5339600;27;20106;-81
2023/01/11 01:26:27;;;;;;;5.43;3.95;;;;;;;10.04;100.00;100636.06;5339072;27;20407;-82
2023/01/11 01:28:59;;;;;;;5.40;4.78;;;;;;;10.06;100.00;100663.41;5340474;27;20098;-81
2023/01/11 01:31:30;;;;;;;4.88;4.05;;;;;;;10.08;100.00;100640.13;5342593;27;20067;-81
2023/01/11 01:34:01;;;;;;;6.88;4.72;;;;;;;10.09;100.00;100641.81;5342055;27;20028;-81
2023/01/11 01:36:33;;;;;;;5.47;4.18;;;;;;;10.12;100.00;100638.84;5342349;27;20059;-81
2023/01/11 01:39:06;;;;;;;7.65;4.60;;;;;;;10.14;100.00;100636.88;5338197;27;20130;-81
2023/01/11 01:41:38;;;;;;;6.40;4.55;;;;;;;10.22;100.00;100642.34;5340044;27;20110;-80
2023/01/11 01:44:46;;;;;;;5.80;4.57;;;;;;;10.34;100.00;100650.19;5341138;27;20165;-82
2023/01/11 01:47:22;;;;;;;5.35;4.05;;;;;;;10.32;100.00;100637.00;5328311;27;20031;-80
2023/01/11 01:49:55;;;;;;;6.13;4.30;;;;;;;10.32;100.00;100658.31;5334526;27;20154;-81
2023/01/11 01:52:29;;;;;;;7.65;4.25;;;;;;;10.35;100.00;100639.38;5336053;27;20050;-81
2023/01/11 01:55:06;;;;;;;6.18;4.30;;;;;;;10.41;100.00;100632.59;5341557;27;20027;-82
2023/01/11 01:57:41;;;;;;;5.30;3.80;;;;;;;10.39;100.00;100642.59;5319213;27;20072;-80
2023/01/11 02:00:12;;;;;;;6.68;4.45;;;;;;;10.40;100.00;100636.28;5337582;27;20024;-82
2023/01/11 02:02:44;;;;;;;6.03;4.28;;;;;;;10.41;100.00;100637.94;5336982;27;21991;-81
2023/01/11 02:05:17;;;;;;;6.40;3.90;;;;;;;10.42;100.00;100636.97;5336823;27;20024;-82
2023/01/11 02:07:50;;;;;;;6.80;3.90;;;;;;;10.47;100.00;100641.88;5337408;27;20032;-81
2023/01/11 02:10:22;;;;;;;7.60;4.00;;;;;;;10.46;100.00;100640.19;5333565;27;20376;-82
2023/01/11 02:12:59;;;;;;;4.72;4.00;;;;;;;10.50;100.00;100639.75;5342084;27;20036;-81
2023/01/11 02:15:31;;;;;;;5.40;3.85;;;;;;;10.47;100.00;100631.19;5332886;27;20020;-81
2023/01/11 02:18:04;;;;;;;5.35;3.70;;;;;;;10.50;100.00;100642.41;5307999;27;20081;-82
2023/01/11 02:20:53;;;;;;;5.88;3.30;;;;;;;10.55;100.00;100636.63;5332206;27;20480;-82
2023/01/11 02:24:00;;;;;;;4.72;3.13;;;;;;;10.60;100.00;100647.69;5341547;27;20038;-82
2023/01/11 02:26:54;;;;;;;7.22;3.50;;;;;;;10.60;100.00;100642.34;5337370;27;20127;-82
2023/01/11 02:29:28;;;;;;;4.82;3.60;;;;;;;10.66;100.00;100639.13;5336908;27;20024;-82
2023/01/11 02:32:32;;;;;;;4.60;3.17;;;;;;;10.68;100.00;100652.31;5339848;27;20870;-81
2023/01/11 02:35:16;;;;;;;4.65;2.65;;;;;;;10.70;100.00;100647.66;5337549;27;20020;-81
2023/01/11 02:38:03;;;;;;;5.35;3.00;;;;;;;10.76;100.00;100631.91;5337827;27;20028;-81
2023/01/11 02:40:50;;;;;;;4.82;2.88;;;;;;;10.75;100.00;100621.38;5316738;27;20503;-81
2023/01/11 02:46:33;;;;;;;5.07;3.00;;;;;;;10.72;100.00;100627.00;5301419;27;20025;-82
2023/01/11 02:49:34;;;;;;;4.35;2.60;;;;;;;10.77;100.00;100617.56;5337378;27;20379;-83
2023/01/11 02:52:35;;;;;;;3.38;2.60;;;;;;;10.83;100.00;100615.28;5329660;27;20531;-81
2023/01/11 02:55:09;;;;;;;2.50;2.30;;;;;;;10.79;100.00;100638.75;5336406;27;20073;-82
2023/01/11 02:57:43;;;;;;;3.75;2.45;;;;;;;10.87;100.00;100628.19;5321472;27;20081;-82
2023/01/11 03:00:16;;;;;;;2.65;2.40;;;;;;;10.89;100.00;100628.03;5333689;27;20027;-82
2023/01/11 03:03:05;;;;;;;3.58;2.38;;;;;;;10.93;100.00;100610.72;5339102;27;20647;-82
2023/01/11 03:05:42;;;;;;;5.65;2.45;;;;;;;10.90;100.00;100609.19;5339558;27;20144;-82
2023/01/11 03:08:26;;;;;;;2.30;2.10;;;;;;;10.94;100.00;100605.25;5315810;27;20032;-81
2023/01/11 03:11:03;;;;;;;2.75;2.25;;;;;;;10.99;100.00;100618.13;5341835;27;20081;-82
2023/01/11 03:13:54;;;;;;;2.58;1.90;;;;;;;11.02;100.00;100607.16;5334541;27;20024;-82
2023/01/11 03:16:32;;;;;;;3.03;1.75;;;;;;;10.98;100.00;100619.97;5338888;27;20119;-81
2023/01/11 03:19:13;;;;;;;2.50;1.70;;;;;;;11.06;100.00;100613.03;5336451;27;20020;-82
2023/01/11 03:22:02;;;;;;;1.88;1.70;;;;;;;11.04;100.00;100618.50;5331893;27;20524;-81
2023/01/11 03:24:49;;;;;;;1.65;1.55;;;;;;;11.09;100.00;100620.72;5335155;27;20494;-82
2023/01/11 03:27:32;;;;;;;3.22;1.70;;;;;;;11.07;100.00;100618.22;5338807;27;20072;-82
2023/01/11 03:30:22;;;;;;;2.35;1.73;;;;;;;11.10;100.00;100622.44;5335784;27;20083;-83
2023/01/11 03:33:02;;;;;;;2.35;1.67;;;;;;;11.11;100.00;100613.41;5330666;27;20070;-82
2023/01/11 03:35:46;;;;;;;2.88;2.03;;;;;;;11.08;100.00;100608.38;5332737;27;20032;-82
2023/01/11 03:38:31;;;;;;;3.58;1.98;;;;;;;11.14;100.00;100615.78;5315645;27;20049;-82
2023/01/11 03:41:09;;;;;;;1.92;1.73;;;;;;;11.07;100.00;100615.53;5338997;27;20031;-82
2023/01/11 03:43:43;;;;;;;2.17;1.70;;;;;;;11.11;100.00;100608.06;5340128;27;20034;-82
2023/01/11 03:46:21;;;;;;;1.90;1.70;;;;;;;11.12;100.00;100607.94;5340260;27;20028;-82
2023/01/11 03:48:57;;;;;;;3.97;1.65;;;;;;;11.12;100.00;100597.25;5339526;27;20024;-82
2023/01/11 03:51:32;;;;;;;2.65;1.63;;;;;;;11.10;100.00;100609.09;5341381;27;20042;-82
2023/01/11 03:54:07;;;;;;;2.72;1.70;;;;;;;11.11;100.00;100603.56;5344438;27;20024;-82
2023/01/11 03:56:48;;;;;;;1.33;1.23;;;;;;;11.11;100.00;100613.41;5341704;27;20028;-82
2023/01/11 03:59:19;;;;;;;3.45;1.70;;;;;;;11.06;100.00;100607.69;5342172;27;20097;-81
2023/01/11 04:01:55;;;;;;;1.67;1.58;;;;;;;11.09;100.00;100604.72;5339044;27;20398;-81
2023/01/11 04:04:27;;;;;;;2.93;1.97;;;;;;;11.10;100.00;100622.44;5339037;27;20103;-82
2023/01/11 04:06:58;;;;;;;2.58;2.38;;;;;;;11.09;100.00;100618.06;5339037;27;20257;-82
2023/01/11 04:09:29;;;;;;;4.70;2.78;;;;;;;11.10;100.00;100614.41;5336388;27;20128;-81
2023/01/11 04:12:01;;;;;;;4.72;2.92;;;;;;;11.11;100.00;100614.25;5339050;27;20111;-82
2023/01/11 04:14:32;;;;;;;3.22;2.92;;;;;;;11.13;100.00;100617.63;5345019;27;20102;-82
2023/01/11 04:17:04;;;;;;;4.38;3.45;;;;;;;11.15;100.00;100628.16;5342764;27;20023;-81
2023/01/11 04:19:35;;;;;;;4.10;3.67;;;;;;;11.14;100.00;100635.31;5351981;27;20031;-81
2023/01/11 04:22:06;;;;;;;4.70;4.20;;;;;;;11.16;100.00;100635.16;5353592;27;20101;-82
2023/01/11 04:24:38;;;;;;;4.43;3.80;;;;;;;11.21;100.00;100632.03;5350865;27;20066;-82
2023/01/11 04:27:09;;;;;;;5.78;4.50;;;;;;;11.22;100.00;100631.91;5340788;27;20028;-81
2023/01/11 04:29:40;;;;;;;4.93;4.15;;;;;;;11.22;100.00;100631.03;5339055;27;21627;-82
2023/01/11 04:32:12;;;;;;;6.32;3.80;;;;;;;11.24;100.00;100635.25;5320649;27;20035;-83
2023/01/11 04:34:43;;;;;;;3.72;3.42;;;;;;;11.25;100.00;100647.59;5320123;27;20032;-83
2023/01/11 04:37:14;;;;;;;4.10;3.22;;;;;;;11.27;100.00;100644.78;5333997;27;20025;-83
2023/01/11 04:39:46;;;;;;;3.60;3.30;;;;;;;11.28;100.00;100646.47;5334643;27;20035;-83
2023/01/11 04:42:17;;;;;;;3.90;2.63;;;;;;;11.28;100.00;100649.13;5338518;27;20039;-82
2023/01/11 04:44:50;;;;;;;2.58;2.38;;;;;;;11.30;100.00;100649.81;5333853;27;20031;-82
2023/01/11 04:47:23;;;;;;;4.70;2.72;;;;;;;11.30;100.00;100664.00;5334329;27;20515;-83
2023/01/11 04:49:54;;;;;;;2.90;2.70;;;;;;;11.29;100.00;100658.81;5337578;27;20031;-83
2023/01/11 04:52:25;;;;;;;2.72;2.53;;;;;;;11.26;100.00;100665.28;5337669;27;20427;-83
2023/01/11 04:54:57;;;;;;;2.40;2.20;;;;;;;11.28;100.00;100662.47;5341066;27;20034;-82
2023/01/11 04:57:28;;;;;;;2.00;1.80;;;;;;;11.28;100.00;100665.97;5338611;27;20122;-83
2023/01/11 04:59:59;;;;;;;2.33;2.13;;;;;;;11.26;100.00;100656.47;5338240;27;20036;-83
2023/01/11 05:02:31;;;;;;;2.67;2.40;;;;;;;11.26;100.00;100653.78;5334608;27;20027;-82
2023/01/11 05:05:03;;;;;;;2.53;2.20;;;;;;;11.26;100.00;100659.13;5341417;27;20026;-82
2023/01/11 05:07:36;;;;;;;2.08;1.80;;;;;;;11.24;100.00;100650.44;5339257;27;20095;-82
2023/01/11 05:10:08;;;;;;;3.40;2.10;;;;;;;11.23;100.00;100660.25;5342465;27;20036;-82
2023/01/11 05:12:39;;;;;;;3.63;2.17;;;;;;;11.20;100.00;100660.53;5336108;27;20035;-82
2023/01/11 05:15:11;;;;;;;5.07;2.67;;;;;;;11.24;100.00;100655.78;5334744;27;20057;-82
2023/01/11 05:17:42;;;;;;;2.22;2.10;;;;;;;11.24;100.00;100663.78;5338301;27;20031;-82
2023/01/11 05:20:14;;;;;;;2.83;2.63;;;;;;;11.19;100.00;100663.41;5338535;27;20043;-82
2023/01/11 05:22:45;;;;;;;3.35;2.67;;;;;;;11.23;100.00;100673.59;5340176;27;20016;-82
2023/01/11 05:25:16;;;;;;;4.40;4.00;;;;;;;11.22;100.00;100676.41;5341603;27;20027;-81
2023/01/11 05:27:48;;;;;;;5.80;5.10;;;;;;;11.21;100.00;100682.75;5337183;27;20444;-81
2023/01/11 05:30:19;;;;;;;5.55;4.80;;;;;;;11.21;100.00;100675.59;5338834;27;20142;-82
2023/01/11 05:32:50;;;;;;;7.05;5.57;;;;;;;11.16;100.00;100675.19;5337481;27;20038;-81
2023/01/11 05:35:22;;;;;;;7.30;6.55;;;;;;;11.13;100.00;100678.16;5335633;27;20023;-83
2023/01/11 05:37:53;;;;;;;8.95;8.15;;;;;;;11.14;100.00;100680.69;5337016;27;20028;-81
2023/01/11 05:40:25;;;;;;;9.80;7.85;;;;;;;11.11;100.00;100688.97;5338621;27;20020;-82
2023/01/11 05:42:56;;;;;;;8.45;7.65;;;;;;;11.11;100.00;100688.97;5337871;27;20024;-81
2023/01/11 05:45:27;;;;;;;9.85;8.13;;;;;;;11.11;100.00;100685.47;5337178;27;20032;-82
2023/01/11 05:47:59;;;;;;;9.55;8.45;;;;;;;11.07;100.00;100681.44;5337725;27;20055;-81
2023/01/11 05:50:30;;;;;;;11.57;8.95;;;;;;;11.03;100.00;100680.91;5340605;27;20540;-82
2023/01/11 05:53:01;;;;;;;9.27;7.93;;;;;;;11.05;100.00;100680.75;5341090;27;20077;-81
2023/01/11 05:55:32;;;;;;;10.98;8.63;;;;;;;11.04;100.00;100693.25;5336902;27;20107;-81
2023/01/11 05:58:05;;;;;;;15.20;9.20;;;;;;;11.03;100.00;100690.75;5339524;27;20028;-81
2023/01/11 06:00:36;;;;;;;10.35;8.35;;;;;;;11.04;100.00;100695.06;5339143;27;20023;-82
2023/01/11 06:03:08;;;;;;;11.50;7.63;;;;;;;11.00;100.00;100709.72;5337528;27;20063;-82
2023/01/11 06:05:39;;;;;;;17.17;5.05;;;;;;;10.84;100.00;100716.53;5336073;27;20040;-81
2023/01/11 06:08:11;;;;;;;19.30;5.28;;;;;;;10.70;100.00;100717.00;5338477;27;20016;-81
2023/01/11 06:10:49;;;;;;;13.65;3.97;;;;;;;10.52;100.00;100711.59;5333326;27;20563;-81
2023/01/11 06:13:27;;;;;;;12.20;3.72;;;;;;;10.49;100.00;100714.56;5340168;27;20036;-81
2023/01/11 06:16:05;;;;;;;16.27;3.50;;;;;;;10.42;100.00;100714.28;5341032;27;20035;-81
2023/01/11 06:18:39;;;;;;;15.75;4.65;;;;;;;10.32;100.00;100724.97;5340824;27;20098;-81
2023/01/11 06:21:11;;;;;;;15.43;3.10;;;;;;;10.25;100.00;100721.16;5340381;27;20109;-81
2023/01/11 06:23:45;;;;;;;16.23;4.32;;;;;;;10.18;100.00;100723.56;5342673;27;20044;-81
2023/01/11 06:26:19;;;;;;;18.75;3.33;;;;;;;10.17;100.00;100734.38;5340139;27;20028;-81
2023/01/11 06:28:51;;;;;;;17.23;4.13;;;;;;;10.15;100.00;100726.53;5337283;27;20027;-81
2023/01/11 06:31:22;;;;;;;19.85;3.67;;;;;;;10.08;100.00;100727.22;5332485;27;20396;-81
2023/01/11 06:33:53;;;;;;;18.15;3.65;;;;;;;10.02;100.00;100733.97;5338583;27;20016;-81
2023/01/11 06:36:24;;;;;;;18.80;3.72;;;;;;;9.99;100.00;100728.91;5335441;27;20429;-81
2023/01/11 06:38:56;;;;;;;18.55;4.82;;;;;;;9.94;100.00;100769.31;5331781;27;20024;-82
2023/01/11 06:41:27;;;;;;;19.17;4.32;;;;;;;9.95;100.00;100762.16;5331710;27;20036;-81
2023/01/11 06:43:58;;;;;;;18.92;3.78;;;;;;;9.98;100.00;100759.22;5335331;27;20028;-81
2023/01/11 06:46:30;;;;;;;23.98;4.28;;;;;;;9.93;100.00;100759.63;5338147;27;20028;-81
2023/01/11 06:49:02;;;;;;;22.67;4.55;;;;;;;9.89;100.00;100766.22;5343115;27;20020;-81
2023/01/11 06:51:34;;;;;;;23.33;4.75;;;;;;;9.86;100.00;100777.16;5339252;27;20106;-81
2023/01/11 06:54:05;;;;;;;28.70;5.32;;;;;;;9.86;100.00;100800.31;5345656;27;20110;-81
2023/01/11 06:56:36;;;;;;;24.95;4.68;;;;;;;9.83;100.00;100801.41;5342655;27;20106;-82
2023/01/11 06:59:08;;;;;;;21.90;4.60;;;;;;;9.80;100.00;100799.88;5337972;27;20031;-81
2023/01/11 07:01:39;;;;;;;25.42;5.32;;;;;;;9.79;100.00;100794.69;5345548;27;20051;-81
2023/01/11 07:04:12;;;;;;;20.67;4.38;;;;;;;9.76;100.00;100786.97;5343354;27;20030;-82
2023/01/11 07:06:43;;;;;;;21.75;4.75;;;;;;;9.75;100.00;100787.97;5349999;27;20518;-82
2023/01/11 07:09:14;;;;;;;31.85;4.90;;;;;;;9.73;100.00;100789.88;5349590;27;20024;-82
2023/01/11 07:11:46;;;;;;;26.85;7.50;;;;;;;9.71;100.00;100797.19;5348323;27;20024;-82
2023/01/11 07:14:18;;;;;;;24.85;5.40;;;;;;;9.65;100.00;100806.56;5350281;27;20024;-82
2023/01/11 07:16:50;;;;;;;25.10;4.55;;;;;;;9.60;100.00;100808.81;5353346;27;20017;-82
2023/01/11 07:19:21;;;;;;;29.15;4.60;;;;;;;9.56;100.00;100812.72;5361114;27;24849;-80
2023/01/11 07:21:52;;;;;;;21.48;4.40;;;;;;;9.57;100.00;100835.69;5360279;27;20031;-82
2023/01/11 07:24:24;;;;;;;29.30;4.68;;;;;;;9.52;100.00;100837.91;5363640;27;20009;-81
2023/01/11 07:26:58;;;;;;;28.00;4.80;;;;;;;9.45;100.00;100829.66;5342406;27;20019;-81
2023/01/11 07:29:29;;;;;;;23.08;4.97;;;;;;;9.42;100.00;100843.22;5358544;27;20036;-81
2023/01/11 07:32:01;;;;;;;25.33;5.38;;;;;;;9.40;100.00;100843.38;5355566;27;20035;-82
2023/01/11 07:34:32;;;;;;;22.25;4.30;;;;;;;9.36;100.00;100836.63;5366520;27;20012;-82
2023/01/11 07:37:04;;;;;;;28.17;4.95;;;;;;;9.33;100.00;100834.25;5363441;27;20026;-81
2023/01/11 07:39:35;;;;;;;30.02;4.53;;;;;;;9.28;100.00;100850.59;5364548;27;20168;-80
2023/01/11 07:44:59;;;;;;;29.67;4.50;;;;;;;9.22;100.00;100861.78;5356364;27;20032;-81
2023/01/11 07:47:31;;;;;;;25.55;5.35;;;;;;;9.16;100.00;100859.66;5332225;28;20015;-81
2023/01/11 07:50:03;;;;;;;39.35;5.70;;;;;;;9.15;100.00;100873.94;5352056;28;20073;-81
2023/01/11 07:52:34;;;;;;;24.48;6.43;;;;;;;9.12;100.00;100882.19;5331567;28;20032;-81
2023/01/11 07:55:05;;;;;;;33.38;4.68;;;;;;;9.04;100.00;100884.66;5362689;27;20048;-81
2023/01/11 07:57:37;;;;;;;37.55;5.20;;;;;;;9.05;100.00;100897.84;5366303;27;20054;-81
2023/01/11 08:00:09;;;;;;;25.40;5.13;;;;;;;9.00;100.00;100889.41;5367933;27;20399;-81
2023/01/11 08:02:41;;;;;;;35.58;5.50;;;;;;;8.97;100.00;100892.31;5361197;27;20414;-82
2023/01/11 08:05:12;;;;;;;32.80;4.88;;;;;;;8.91;100.00;100889.34;5348162;27;20073;-82
2023/01/11 08:07:43;;;;;;;26.27;4.68;;;;;;;8.93;100.00;100904.19;5349111;27;20028;-82
2023/01/11 08:10:15;;;;;;;26.50;4.68;;;;;;;8.91;100.00;100908.81;5336125;27;20025;-82
2023/01/11 08:15:41;;;;;;;29.00;5.25;;;;;;;8.85;100.00;100915.50;5346513;27;20028;-82
2023/01/11 08:18:12;;;;;;;28.35;5.15;;;;;;;8.82;100.00;100922.91;5343288;27;20116;-81
2023/01/11 08:20:44;;;;;;;34.75;5.57;;;;;;;8.79;100.00;100928.47;5334611;27;20089;-82
2023/01/11 08:23:15;;;;;;;27.13;4.90;;;;;;;8.75;100.00;100937.66;5332503;27;20020;-81
2023/01/11 08:25:47;;;;;;;34.28;4.97;;;;;;;8.75;100.00;100951.81;5348329;27;20011;-82
2023/01/11 08:28:18;;;;;;;34.92;4.97;;;;;;;8.69;100.00;100960.28;5344865;27;20023;-82
2023/01/11 08:30:49;;;;;;;26.15;4.72;;;;;;;8.63;100.00;100966.13;5313125;27;20039;-82
2023/01/11 08:33:21;;;;;;;29.25;4.90;;;;;;;8.56;100.00;100965.78;5346701;27;20061;-82
2023/01/11 08:35:52;;;;;;;27.13;4.50;;;;;;;8.66;100.00;100976.50;5347495;27;20023;-82
2023/01/11 08:38:24;;;;;;;22.33;4.25;;;;;;;8.65;100.00;100977.47;5328081;27;20031;-82
2023/01/11 08:40:55;;;;;;;21.88;4.63;;;;;;;8.63;100.00;100982.91;5348659;27;20421;-82
2023/01/11 08:43:29;;;;;;;22.95;4.80;;;;;;;8.60;100.00;100980.50;5346551;27;20051;-82
2023/01/11 08:46:00;;;;;;;33.38;5.05;;;;;;;8.54;100.00;100975.72;5327832;27;20085;-82
2023/01/11 08:48:31;;;;;;;25.45;4.22;;;;;;;8.52;100.00;100977.66;5347712;27;20453;-82
2023/01/11 08:51:03;;;;;;;27.08;4.80;;;;;;;8.52;100.00;100993.59;5347813;27;20074;-82
2023/01/11 08:53:35;;;;;;;30.27;4.50;;;;;;;8.55;100.00;100993.31;5327710;27;20097;-82
2023/01/11 08:56:06;;;;;;;23.60;3.78;;;;;;;8.52;100.00;100996.25;5308069;28;20110;-82
2023/01/11 08:58:38;;;;;;;26.45;4.32;;;;;;;8.51;100.00;101003.38;5307641;28;20157;-82
2023/01/11 09:01:10;;;;;;;24.50;3.95;;;;;;;8.50;100.00;101014.13;5337776;27;20104;-82
2023/01/11 09:03:42;;;;;;;25.98;5.22;;;;;;;8.48;100.00;101005.44;5342582;27;20383;-82
2023/01/11 09:06:13;;;;;;;28.25;3.85;;;;;;;8.45;100.00;101016.31;5336370;27;20028;-83
2023/01/11 09:08:46;;;;;;;18.67;4.28;;;;;;;8.46;100.00;101026.81;5327327;27;20494;-82
2023/01/11 09:14:07;;;;;;;26.73;4.25;;;;;;;8.44;100.00;101017.31;5332485;27;20023;-82
2023/01/11 09:16:39;;;;;;;28.85;4.60;;;;;;;8.45;100.00;101024.28;5346662;27;20076;-81
2023/01/11 09:19:10;;;;;;;20.17;3.72;;;;;;;8.48;100.00;101027.53;5347766;27;20016;-82
2023/01/11 09:21:43;;;;;;;27.17;4.78;;;;;;;8.47;100.00;101031.19;5348648;27;20400;-82
2023/01/11 09:24:14;;;;;;;29.00;5.30;;;;;;;8.44;100.00;101030.59;5352089;27;20440;-81
2023/01/11 09:26:46;;;;;;;33.75;5.22;;;;;;;8.40;100.00;101042.41;5372136;27;20043;-80
2023/01/11 09:29:18;;;;;;;22.52;4.03;;;;;;;8.36;100.00;101025.84;5369750;27;20039;-81
2023/01/11 09:31:49;;;;;;;21.65;4.78;;;;;;;8.34;100.00;101035.75;5367958;27;20062;-81
2023/01/11 09:34:21;;;;;;;25.58;3.92;;;;;;;8.34;100.00;101051.72;5346840;27;20797;-81
2023/01/11 09:36:54;;;;;;;23.30;3.50;;;;;;;8.25;100.00;101047.97;5339978;27;20110;-82
2023/01/11 09:39:27;;;;;;;27.42;3.95;;;;;;;8.29;100.00;101051.22;5342521;27;20023;-81
2023/01/11 09:42:07;;;;;;;20.08;3.38;;;;;;;8.30;100.00;101050.28;5337146;27;20038;-82
2023/01/11 09:44:53;;;;;;;20.08;4.68;;;;;;;8.39;100.00;101061.97;5333722;27;20095;-82
2023/01/11 09:47:47;;;;;;;19.25;4.05;;;;;;;8.42;100.00;101057.28;5337211;27;20035;-82
2023/01/11 09:50:24;;;;;;;19.75;3.40;;;;;;;8.36;100.00;101057.75;5337660;27;20569;-82
2023/01/11 09:53:06;;;;;;;21.95;4.00;;;;;;;8.41;100.00;101054.72;5337926;27;20120;-82
2023/01/11 09:55:49;;;;;;;23.08;3.97;;;;;;;8.33;100.00;101064.16;5334548;27;20103;-82
2023/01/11 09:58:45;;;;;;;18.95;3.97;;;;;;;8.47;100.00;101075.53;5334560;27;20051;-81
2023/01/11 10:01:39;;;;;;;20.75;3.67;;;;;;;8.52;100.00;101073.38;5340778;27;20024;-81
2023/01/11 10:04:36;;;;;;;22.90;4.30;;;;;;;8.56;100.00;101073.97;5332718;27;20047;-81
2023/01/11 10:07:37;;;;;;;19.75;4.13;;;;;;;8.70;100.00;101077.19;5338279;27;20085;-80
2023/01/11 10:10:19;;;;;;;29.27;3.88;;;;;;;8.80;100.00;101077.28;5336120;27;20032;-81
2023/01/11 10:12:55;;;;;;;20.38;4.50;;;;;;;8.84;100.00;101075.22;5335080;27;20028;-81
2023/01/11 10:15:43;;;;;;;16.50;3.50;;;;;;;8.95;100.00;101075.16;5329425;27;20024;-80
2023/01/11 10:18:25;;;;;;;24.55;5.15;;;;;;;9.04;100.00;101079.72;5342227;27;20035;-81
2023/01/11 10:21:09;;;;;;;18.17;3.97;;;;;;;9.21;100.00;101078.34;5344958;27;20039;-81
2023/01/11 10:23:54;;;;;;;28.63;5.25;;;;;;;9.42;100.00;101086.34;5312576;28;20028;-81
2023/01/11 10:26:34;;;;;;;20.63;3.95;;;;;;;9.40;100.00;101076.81;5344034;27;20024;-81
2023/01/11 10:29:21;;;;;;;19.15;5.03;;;;;;;9.59;100.00;101076.94;5350513;27;20024;-81
2023/01/11 10:35:16;;;;;;;20.63;4.13;;;;;;;9.71;100.00;101079.53;5344766;27;20044;-81
2023/01/11 10:38:22;;;;;;;21.00;4.70;;;;;;;9.68;100.00;101085.09;5346372;27;20381;-81
2023/01/11 10:41:07;;;;;;;23.67;5.03;;;;;;;9.73;100.00;101088.22;5346051;27;20106;-81
2023/01/11 10:43:42;;;;;;;22.45;3.88;;;;;;;9.73;100.00;101086.41;5345433;27;20016;-81
2023/01/11 10:46:22;;;;;;;19.98;4.05;;;;;;;9.74;100.00;101087.25;5337588;27;20020;-81
2023/01/11 10:49:14;;;;;;;18.50;4.20;;;;;;;9.77;100.00;101084.34;5318409;27;20068;-81
2023/01/11 10:51:48;;;;;;;27.60;3.95;;;;;;;9.83;100.00;101083.78;5339799;27;20039;-81
2023/01/11 10:54:26;;;;;;;20.90;4.18;;;;;;;9.84;100.00;101085.50;5334085;27;20490;-81
2023/01/11 10:57:06;;;;;;;18.75;4.05;;;;;;;9.83;100.00;101078.47;5323348;27;20023;-81
2023/01/11 10:59:50;;;;;;;23.95;4.32;;;;;;;10.06;100.00;101070.31;5349804;27;20080;-81
2023/01/11 11:02:32;;;;;;;21.35;4.68;;;;;;;10.09;100.00;101081.53;5347259;27;20058;-80
2023/01/11 11:05:16;;;;;;;20.88;4.20;;;;;;;10.21;100.00;101084.97;5357357;27;20024;-80
2023/01/11 11:08:25;;;;;;;21.08;3.85;;;;;;;10.37;100.00;101082.66;5351929;27;20036;-82
2023/01/11 11:11:02;;;;;;;15.80;3.47;;;;;;;10.62;100.00;101077.00;5335235;27;20067;-82
2023/01/11 11:13:38;;;;;;;15.32;3.67;;;;;;;12.16;100.00;101082.38;5342704;27;20023;-81
2023/01/11 11:16:22;;;;;;;22.52;3.60;;;;;;;14.06;100.00;101085.84;5346540;27;20046;-81
2023/01/11 11:18:57;;;;;;;15.77;3.10;;;;;;;14.47;100.00;101086.03;5339971;27;20356;-81
2023/01/11 11:21:34;;;;;;;16.30;3.17;;;;;;;14.65;100.00;101079.75;5347793;27;20062;-81
2023/01/11 11:24:16;;;;;;;23.25;4.00;;;;;;;14.27;100.00;101073.88;5337734;27;20027;-82
2023/01/11 11:27:15;;;;;;;17.40;4.25;;;;;;;14.78;100.00;101074.75;5347294;27;20357;-81
2023/01/11 11:29:52;;;;;;;18.73;4.35;;;;;;;15.06;100.00;101069.94;5328639;27;20055;-82
2023/01/11 11:32:37;;;;;;;16.13;3.35;;;;;;;15.39;100.00;101071.78;5333495;27;20085;-82
2023/01/11 11:35:29;;;;;;;11.68;3.42;;;;;;;15.81;100.00;101081.53;5347080;27;20048;-81
2023/01/11 11:38:00;;;;;;;19.17;3.55;;;;;;;15.27;100.00;101088.25;5340518;27;20115;-81
2023/01/11 11:40:37;;;;;;;13.98;3.70;;;;;;;15.73;100.00;101094.97;5340511;27;20070;-82
2023/01/11 11:43:24;;;;;;;12.15;3.30;;;;;;;16.71;100.00;101083.06;5335017;27;20027;-81
2023/01/11 11:45:57;;;;;;;15.57;3.60;;;;;;;16.24;100.00;101082.91;5331702;27;20055;-81
2023/01/11 11:48:33;;;;;;;18.83;4.93;;;;;;;16.95;100.00;101092.84;5344136;27;20479;-82
2023/01/11 11:51:09;;;;;;;12.77;3.03;;;;;;;17.99;100.00;101092.34;5337985;27;20040;-82
2023/01/11 11:53:50;;;;;;;19.08;4.40;;;;;;;18.13;100.00;101094.22;5339367;27;20021;-81
2023/01/11 11:56:33;;;;;;;16.83;3.60;;;;;;;16.67;100.00;101087.94;5347121;27;20449;-81
2023/01/11 11:59:08;;;;;;;13.05;3.20;;;;;;;16.80;100.00;101095.47;5321365;27;20024;-81
2023/01/11 12:01:45;;;;;;;13.90;3.33;;;;;;;16.25;100.00;101103.44;5353312;27;20062;-81
2023/01/11 12:04:28;;;;;;;15.18;4.10;;;;;;;15.40;100.00;101097.66;5350331;27;20038;-80
2023/01/11 12:07:15;;;;;;;14.63;3.58;;;;;;;15.67;100.00;101083.03;5350416;27;20043;-82
2023/01/11 12:10:12;;;;;;;19.38;4.65;;;;;;;15.41;100.00;101088.56;5342361;27;20034;-81
2023/01/11 12:12:58;;;;;;;15.52;4.82;;;;;;;15.20;100.00;101091.75;5338346;27;20036;-82
2023/01/11 12:15:32;;;;;;;18.42;4.05;;;;;;;14.43;100.00;101081.13;5341478;27;20114;-81
2023/01/11 12:18:27;;;;;;;18.25;4.22;;;;;;;14.13;100.00;101096.75;5335734;27;20043;-81
2023/01/11 12:21:14;;;;;;;14.05;3.17;;;;;;;13.83;100.00;101111.50;5341770;27;20438;-81